sensor_id;sensor_type;location;lat;lon;timestamp;P1;durP1;ratioP1;P2;durP2;ratioP2
42944;SDS011;28584;42.636;23.294;2022-09-12T00:00:40;4.70;;;4.30;;
42944;SDS011;28584;42.636;23.294;2022-09-12T00:03:06;4.60;;;4.15;;
42944;SDS011;28584;42.636;23.294;2022-09-12T00:05:31;4.90;;;4.03;;
42944;SDS011;28584;42.636;23.294;2022-09-12T00:07:57;4.82;;;4.30;;
42944;SDS011;28584;42.636;23.294;2022-09-12T00:10:23;4.03;;;3.63;;
42944;SDS011;28584;42.636;23.294;2022-09-12T00:12:48;4.22;;;3.67;;
42944;SDS011;28584;42.636;23.294;2022-09-12T00:15:14;3.58;;;3.28;;
42944;SDS011;28584;42.636;23.294;2022-09-12T00:17:39;2.95;;;2.75;;
42944;SDS011;28584;42.636;23.294;2022-09-12T00:20:05;3.22;;;2.92;;
42944;SDS011;28584;42.636;23.294;2022-09-12T00:22:33;6.32;;;2.83;;
42944;SDS011;28584;42.636;23.294;2022-09-12T00:24:58;3.38;;;3.08;;
42944;SDS011;28584;42.636;23.294;2022-09-12T00:27:24;4.18;;;3.65;;
42944;SDS011;28584;42.636;23.294;2022-09-12T00:29:50;4.43;;;4.03;;
42944;SDS011;28584;42.636;23.294;2022-09-12T00:32:15;5.63;;;4.07;;
42944;SDS011;28584;42.636;23.294;2022-09-12T00:34:40;3.92;;;3.63;;
42944;SDS011;28584;42.636;23.294;2022-09-12T01:55:06;1.70;;;1.60;;
42944;SDS011;28584;42.636;23.294;2022-09-12T01:57:38;2.03;;;1.90;;
42944;SDS011;28584;42.636;23.294;2022-09-12T02:00:09;2.25;;;1.60;;
42944;SDS011;28584;42.636;23.294;2022-09-12T02:03:19;5.18;;;2.10;;
42944;SDS011;28584;42.636;23.294;2022-09-12T02:05:54;1.70;;;1.60;;
42944;SDS011;28584;42.636;23.294;2022-09-12T02:08:27;2.72;;;1.70;;
42944;SDS011;28584;42.636;23.294;2022-09-12T02:11:01;3.33;;;1.90;;
42944;SDS011;28584;42.636;23.294;2022-09-12T02:16:05;1.95;;;1.60;;
42944;SDS011;28584;42.636;23.294;2022-09-12T02:18:38;1.70;;;1.60;;
42944;SDS011;28584;42.636;23.294;2022-09-12T02:21:08;1.60;;;1.50;;
42944;SDS011;28584;42.636;23.294;2022-09-12T02:23:35;1.50;;;1.40;;
42944;SDS011;28584;42.636;23.294;2022-09-12T02:26:07;2.30;;;1.70;;
42944;SDS011;28584;42.636;23.294;2022-09-12T02:28:43;1.88;;;1.77;;
42944;SDS011;28584;42.636;23.294;2022-09-12T02:31:15;1.90;;;1.80;;
42944;SDS011;28584;42.636;23.294;2022-09-12T02:34:08;2.15;;;1.95;;
42944;SDS011;28584;42.636;23.294;2022-09-12T02:39:20;1.73;;;1.63;;
42944;SDS011;28584;42.636;23.294;2022-09-12T02:41:47;2.72;;;2.53;;
42944;SDS011;28584;42.636;23.294;2022-09-12T02:44:15;3.92;;;2.40;;
42944;SDS011;28584;42.636;23.294;2022-09-12T02:46:48;3.22;;;2.47;;
42944;SDS011;28584;42.636;23.294;2022-09-12T02:49:18;4.13;;;2.80;;
42944;SDS011;28584;42.636;23.294;2022-09-12T02:51:44;2.83;;;2.55;;
42944;SDS011;28584;42.636;23.294;2022-09-12T02:54:10;2.70;;;2.50;;
42944;SDS011;28584;42.636;23.294;2022-09-12T02:56:40;2.67;;;2.20;;
42944;SDS011;28584;42.636;23.294;2022-09-12T02:59:07;2.42;;;2.20;;
42944;SDS011;28584;42.636;23.294;2022-09-12T03:07:11;2.97;;;2.72;;
42944;SDS011;28584;42.636;23.294;2022-09-12T03:12:45;3.00;;;2.70;;
42944;SDS011;28584;42.636;23.294;2022-09-12T03:15:16;3.05;;;2.50;;
42944;SDS011;28584;42.636;23.294;2022-09-12T03:18:05;2.83;;;2.60;;
42944;SDS011;28584;42.636;23.294;2022-09-12T03:20:54;3.30;;;3.00;;
42944;SDS011;28584;42.636;23.294;2022-09-12T03:23:37;4.10;;;2.83;;
42944;SDS011;28584;42.636;23.294;2022-09-12T03:26:14;3.67;;;2.75;;
42944;SDS011;28584;42.636;23.294;2022-09-12T03:28:44;4.45;;;3.13;;
42944;SDS011;28584;42.636;23.294;2022-09-12T03:31:14;3.40;;;2.92;;
42944;SDS011;28584;42.636;23.294;2022-09-12T03:33:41;3.28;;;3.08;;
42944;SDS011;28584;42.636;23.294;2022-09-12T03:36:11;3.10;;;2.80;;
42944;SDS011;28584;42.636;23.294;2022-09-12T03:38:40;3.72;;;3.30;;
42944;SDS011;28584;42.636;23.294;2022-09-12T03:41:06;3.95;;;2.97;;
42944;SDS011;28584;42.636;23.294;2022-09-12T03:43:32;4.35;;;4.03;;
42944;SDS011;28584;42.636;23.294;2022-09-12T03:45:57;5.03;;;4.18;;
42944;SDS011;28584;42.636;23.294;2022-09-12T03:48:22;3.75;;;3.45;;
42944;SDS011;28584;42.636;23.294;2022-09-12T03:50:48;4.68;;;4.28;;
42944;SDS011;28584;42.636;23.294;2022-09-12T03:53:13;5.45;;;4.22;;
42944;SDS011;28584;42.636;23.294;2022-09-12T03:55:39;5.50;;;5.03;;
42944;SDS011;28584;42.636;23.294;2022-09-12T03:58:04;6.70;;;5.93;;
42944;SDS011;28584;42.636;23.294;2022-09-12T04:00:29;6.47;;;5.88;;
42944;SDS011;28584;42.636;23.294;2022-09-12T04:02:55;7.03;;;6.32;;
42944;SDS011;28584;42.636;23.294;2022-09-12T04:05:21;7.75;;;6.25;;
42944;SDS011;28584;42.636;23.294;2022-09-12T04:07:48;6.95;;;6.30;;
42944;SDS011;28584;42.636;23.294;2022-09-12T04:10:13;7.40;;;6.78;;
42944;SDS011;28584;42.636;23.294;2022-09-12T04:12:38;7.10;;;6.50;;
42944;SDS011;28584;42.636;23.294;2022-09-12T04:15:04;8.30;;;7.50;;
42944;SDS011;28584;42.636;23.294;2022-09-12T04:17:32;8.05;;;7.25;;
42944;SDS011;28584;42.636;23.294;2022-09-12T04:19:58;8.07;;;7.25;;
42944;SDS011;28584;42.636;23.294;2022-09-12T04:22:23;7.80;;;7.10;;
42944;SDS011;28584;42.636;23.294;2022-09-12T04:24:49;7.38;;;6.68;;
42944;SDS011;28584;42.636;23.294;2022-09-12T04:27:15;8.00;;;7.22;;
42944;SDS011;28584;42.636;23.294;2022-09-12T04:29:41;7.78;;;6.97;;
42944;SDS011;28584;42.636;23.294;2022-09-12T04:32:06;7.72;;;6.90;;
42944;SDS011;28584;42.636;23.294;2022-09-12T04:34:31;10.77;;;6.50;;
42944;SDS011;28584;42.636;23.294;2022-09-12T04:36:57;8.07;;;6.65;;
42944;SDS011;28584;42.636;23.294;2022-09-12T04:39:22;7.05;;;6.03;;
42944;SDS011;28584;42.636;23.294;2022-09-12T04:41:48;6.50;;;5.72;;
42944;SDS011;28584;42.636;23.294;2022-09-12T04:44:14;5.25;;;4.75;;
42944;SDS011;28584;42.636;23.294;2022-09-12T04:46:44;7.05;;;5.55;;
42944;SDS011;28584;42.636;23.294;2022-09-12T04:49:11;5.00;;;4.60;;
42944;SDS011;28584;42.636;23.294;2022-09-12T04:51:38;6.72;;;4.70;;
42944;SDS011;28584;42.636;23.294;2022-09-12T04:54:06;5.85;;;4.28;;
42944;SDS011;28584;42.636;23.294;2022-09-12T04:56:37;6.47;;;5.00;;
42944;SDS011;28584;42.636;23.294;2022-09-12T04:59:04;5.50;;;4.72;;
42944;SDS011;28584;42.636;23.294;2022-09-12T05:01:30;4.93;;;4.15;;
42944;SDS011;28584;42.636;23.294;2022-09-12T05:03:56;6.75;;;4.75;;
42944;SDS011;28584;42.636;23.294;2022-09-12T05:06:24;5.57;;;4.43;;
42944;SDS011;28584;42.636;23.294;2022-09-12T05:08:51;3.83;;;3.50;;
42944;SDS011;28584;42.636;23.294;2022-09-12T05:11:18;3.78;;;3.42;;
42944;SDS011;28584;42.636;23.294;2022-09-12T05:13:46;4.07;;;3.75;;
42944;SDS011;28584;42.636;23.294;2022-09-12T05:16:12;6.00;;;3.88;;
42944;SDS011;28584;42.636;23.294;2022-09-12T05:18:39;4.35;;;3.95;;
42944;SDS011;28584;42.636;23.294;2022-09-12T05:21:06;4.57;;;3.83;;
42944;SDS011;28584;42.636;23.294;2022-09-12T05:23:33;3.85;;;3.30;;
42944;SDS011;28584;42.636;23.294;2022-09-12T05:25:59;3.55;;;2.95;;
42944;SDS011;28584;42.636;23.294;2022-09-12T05:28:30;4.82;;;3.50;;
42944;SDS011;28584;42.636;23.294;2022-09-12T05:31:00;3.97;;;3.55;;
42944;SDS011;28584;42.636;23.294;2022-09-12T05:33:31;4.43;;;3.67;;
42944;SDS011;28584;42.636;23.294;2022-09-12T05:35:58;4.07;;;3.78;;
42944;SDS011;28584;42.636;23.294;2022-09-12T05:38:24;5.78;;;3.80;;
42944;SDS011;28584;42.636;23.294;2022-09-12T05:40:50;4.70;;;3.83;;
42944;SDS011;28584;42.636;23.294;2022-09-12T05:43:16;4.70;;;4.32;;
42944;SDS011;28584;42.636;23.294;2022-09-12T05:45:41;4.93;;;4.18;;
42944;SDS011;28584;42.636;23.294;2022-09-12T05:48:07;4.03;;;3.72;;
42944;SDS011;28584;42.636;23.294;2022-09-12T05:50:32;4.57;;;4.20;;
42944;SDS011;28584;42.636;23.294;2022-09-12T05:52:58;4.30;;;4.00;;
42944;SDS011;28584;42.636;23.294;2022-09-12T05:55:23;5.03;;;4.40;;
42944;SDS011;28584;42.636;23.294;2022-09-12T05:57:49;4.03;;;3.72;;
42944;SDS011;28584;42.636;23.294;2022-09-12T06:00:15;3.92;;;3.63;;
42944;SDS011;28584;42.636;23.294;2022-09-12T06:02:41;4.10;;;3.80;;
42944;SDS011;28584;42.636;23.294;2022-09-12T06:05:06;4.05;;;3.70;;
42944;SDS011;28584;42.636;23.294;2022-09-12T06:07:32;3.80;;;3.50;;
42944;SDS011;28584;42.636;23.294;2022-09-12T06:09:57;3.78;;;3.58;;
42944;SDS011;28584;42.636;23.294;2022-09-12T06:12:23;4.43;;;4.13;;
42944;SDS011;28584;42.636;23.294;2022-09-12T06:14:50;4.30;;;3.90;;
42944;SDS011;28584;42.636;23.294;2022-09-12T06:17:16;4.05;;;3.75;;
42944;SDS011;28584;42.636;23.294;2022-09-12T06:19:42;4.07;;;3.78;;
42944;SDS011;28584;42.636;23.294;2022-09-12T06:22:08;4.50;;;4.10;;
42944;SDS011;28584;42.636;23.294;2022-09-12T06:24:33;4.10;;;3.80;;
42944;SDS011;28584;42.636;23.294;2022-09-12T06:26:59;4.72;;;4.07;;
42944;SDS011;28584;42.636;23.294;2022-09-12T06:29:26;4.75;;;4.45;;
42944;SDS011;28584;42.636;23.294;2022-09-12T06:31:51;4.88;;;4.57;;
42944;SDS011;28584;42.636;23.294;2022-09-12T06:34:17;5.20;;;4.65;;
42944;SDS011;28584;42.636;23.294;2022-09-12T06:36:47;4.10;;;3.80;;
42944;SDS011;28584;42.636;23.294;2022-09-12T06:39:17;4.68;;;4.28;;
42944;SDS011;28584;42.636;23.294;2022-09-12T06:41:47;3.67;;;3.40;;
42944;SDS011;28584;42.636;23.294;2022-09-12T06:44:16;4.18;;;3.65;;
42944;SDS011;28584;42.636;23.294;2022-09-12T06:46:43;4.43;;;3.90;;
42944;SDS011;28584;42.636;23.294;2022-09-12T06:49:09;4.25;;;3.90;;
42944;SDS011;28584;42.636;23.294;2022-09-12T06:51:34;3.55;;;3.35;;
42944;SDS011;28584;42.636;23.294;2022-09-12T06:54:00;4.40;;;4.10;;
42944;SDS011;28584;42.636;23.294;2022-09-12T06:56:26;4.03;;;3.72;;
42944;SDS011;28584;42.636;23.294;2022-09-12T06:58:54;4.82;;;4.40;;
42944;SDS011;28584;42.636;23.294;2022-09-12T07:01:27;4.20;;;3.90;;
42944;SDS011;28584;42.636;23.294;2022-09-12T07:03:58;4.80;;;4.40;;
42944;SDS011;28584;42.636;23.294;2022-09-12T07:06:27;4.43;;;4.03;;
42944;SDS011;28584;42.636;23.294;2022-09-12T07:08:59;5.00;;;4.63;;
42944;SDS011;28584;42.636;23.294;2022-09-12T07:11:26;6.82;;;4.45;;
42944;SDS011;28584;42.636;23.294;2022-09-12T07:13:56;5.45;;;4.95;;
42944;SDS011;28584;42.636;23.294;2022-09-12T07:16:23;4.68;;;4.28;;
42944;SDS011;28584;42.636;23.294;2022-09-12T07:18:50;4.88;;;4.50;;
42944;SDS011;28584;42.636;23.294;2022-09-12T07:21:16;8.25;;;4.55;;
42944;SDS011;28584;42.636;23.294;2022-09-12T07:23:42;5.63;;;5.10;;
42944;SDS011;28584;42.636;23.294;2022-09-12T07:26:09;4.40;;;4.00;;
42944;SDS011;28584;42.636;23.294;2022-09-12T07:28:36;4.78;;;4.38;;
42944;SDS011;28584;42.636;23.294;2022-09-12T07:33:32;5.30;;;4.82;;
42944;SDS011;28584;42.636;23.294;2022-09-12T07:36:01;5.07;;;4.70;;
42944;SDS011;28584;42.636;23.294;2022-09-12T07:38:28;5.95;;;5.45;;
42944;SDS011;28584;42.636;23.294;2022-09-12T07:40:54;5.43;;;5.03;;
42944;SDS011;28584;42.636;23.294;2022-09-12T07:43:19;6.22;;;5.63;;
42944;SDS011;28584;42.636;23.294;2022-09-12T07:45:45;5.07;;;4.68;;
42944;SDS011;28584;42.636;23.294;2022-09-12T07:48:10;4.68;;;4.38;;
42944;SDS011;28584;42.636;23.294;2022-09-12T07:50:36;5.07;;;4.68;;
42944;SDS011;28584;42.636;23.294;2022-09-12T07:53:02;4.13;;;3.83;;
42944;SDS011;28584;42.636;23.294;2022-09-12T07:55:28;5.30;;;4.60;;
42944;SDS011;28584;42.636;23.294;2022-09-12T07:57:54;4.85;;;4.32;;
42944;SDS011;28584;42.636;23.294;2022-09-12T08:00:19;4.60;;;4.30;;
42944;SDS011;28584;42.636;23.294;2022-09-12T08:02:52;5.28;;;4.75;;
42944;SDS011;28584;42.636;23.294;2022-09-12T08:05:18;4.53;;;4.10;;
42944;SDS011;28584;42.636;23.294;2022-09-12T08:07:44;5.07;;;4.68;;
42944;SDS011;28584;42.636;23.294;2022-09-12T08:10:10;4.20;;;3.90;;
42944;SDS011;28584;42.636;23.294;2022-09-12T08:12:36;4.60;;;4.30;;
42944;SDS011;28584;42.636;23.294;2022-09-12T08:15:01;3.90;;;3.38;;
42944;SDS011;28584;42.636;23.294;2022-09-12T08:17:26;3.97;;;3.72;;
42944;SDS011;28584;42.636;23.294;2022-09-12T08:19:53;3.80;;;3.50;;
42944;SDS011;28584;42.636;23.294;2022-09-12T08:22:18;4.43;;;3.67;;
42944;SDS011;28584;42.636;23.294;2022-09-12T08:24:46;3.35;;;3.15;;
42944;SDS011;28584;42.636;23.294;2022-09-12T08:27:12;2.97;;;2.78;;
42944;SDS011;28584;42.636;23.294;2022-09-12T08:29:38;3.67;;;2.95;;
42944;SDS011;28584;42.636;23.294;2022-09-12T08:32:04;2.95;;;2.75;;
42944;SDS011;28584;42.636;23.294;2022-09-12T08:34:30;3.75;;;2.70;;
42944;SDS011;28584;42.636;23.294;2022-09-12T08:36:55;3.45;;;2.97;;
42944;SDS011;28584;42.636;23.294;2022-09-12T08:39:21;4.30;;;2.90;;
42944;SDS011;28584;42.636;23.294;2022-09-12T08:41:54;3.10;;;2.90;;
42944;SDS011;28584;42.636;23.294;2022-09-12T08:47:34;3.10;;;2.90;;
42944;SDS011;28584;42.636;23.294;2022-09-12T08:50:09;3.55;;;3.30;;
42944;SDS011;28584;42.636;23.294;2022-09-12T08:52:42;4.07;;;3.33;;
42944;SDS011;28584;42.636;23.294;2022-09-12T08:57:57;3.85;;;3.55;;
42944;SDS011;28584;42.636;23.294;2022-09-12T09:00:30;4.20;;;3.70;;
42944;SDS011;28584;42.636;23.294;2022-09-12T09:05:44;3.88;;;3.58;;
42944;SDS011;28584;42.636;23.294;2022-09-12T09:08:24;3.85;;;3.58;;
42944;SDS011;28584;42.636;23.294;2022-09-12T09:16:41;3.90;;;3.60;;
42944;SDS011;28584;42.636;23.294;2022-09-12T09:19:19;3.97;;;3.75;;
42944;SDS011;28584;42.636;23.294;2022-09-12T09:24:27;4.32;;;3.92;;
42944;SDS011;28584;42.636;23.294;2022-09-12T09:27:01;3.83;;;3.53;;
42944;SDS011;28584;42.636;23.294;2022-09-12T09:29:35;4.15;;;3.80;;
42944;SDS011;28584;42.636;23.294;2022-09-12T09:32:09;5.10;;;4.63;;
42944;SDS011;28584;42.636;23.294;2022-09-12T09:34:40;4.18;;;3.85;;
42944;SDS011;28584;42.636;23.294;2022-09-12T09:39:51;4.47;;;4.05;;
42944;SDS011;28584;42.636;23.294;2022-09-12T09:42:44;4.07;;;3.72;;
42944;SDS011;28584;42.636;23.294;2022-09-12T09:45:23;4.43;;;4.00;;
42944;SDS011;28584;42.636;23.294;2022-09-12T09:50:17;4.47;;;4.18;;
42944;SDS011;28584;42.636;23.294;2022-09-12T09:52:43;3.38;;;3.17;;
42944;SDS011;28584;42.636;23.294;2022-09-12T09:55:19;3.28;;;3.00;;
42944;SDS011;28584;42.636;23.294;2022-09-12T09:57:49;3.63;;;3.33;;
42944;SDS011;28584;42.636;23.294;2022-09-12T10:00:49;4.25;;;3.05;;
42944;SDS011;28584;42.636;23.294;2022-09-12T10:05:56;3.92;;;3.65;;
42944;SDS011;28584;42.636;23.294;2022-09-12T10:08:26;3.80;;;3.50;;
42944;SDS011;28584;42.636;23.294;2022-09-12T10:11:06;3.88;;;3.58;;
42944;SDS011;28584;42.636;23.294;2022-09-12T10:18:53;4.32;;;4.03;;
42944;SDS011;28584;42.636;23.294;2022-09-12T10:23:50;3.75;;;3.50;;
42944;SDS011;28584;42.636;23.294;2022-09-12T10:26:37;4.05;;;3.72;;
42944;SDS011;28584;42.636;23.294;2022-09-12T10:29:14;4.03;;;3.72;;
42944;SDS011;28584;42.636;23.294;2022-09-12T10:31:49;4.03;;;3.75;;
42944;SDS011;28584;42.636;23.294;2022-09-12T10:36:57;4.28;;;3.97;;
42944;SDS011;28584;42.636;23.294;2022-09-12T10:39:27;4.32;;;4.03;;
42944;SDS011;28584;42.636;23.294;2022-09-12T10:41:53;4.50;;;4.20;;
42944;SDS011;28584;42.636;23.294;2022-09-12T10:44:26;4.90;;;4.50;;
42944;SDS011;28584;42.636;23.294;2022-09-12T10:46:56;5.30;;;4.90;;
42944;SDS011;28584;42.636;23.294;2022-09-12T10:49:30;5.43;;;5.03;;
42944;SDS011;28584;42.636;23.294;2022-09-12T10:54:47;4.82;;;4.45;;
42944;SDS011;28584;42.636;23.294;2022-09-12T11:00:12;5.15;;;4.72;;
42944;SDS011;28584;42.636;23.294;2022-09-12T11:05:31;4.25;;;3.95;;
42944;SDS011;28584;42.636;23.294;2022-09-12T11:08:08;4.45;;;4.15;;
42944;SDS011;28584;42.636;23.294;2022-09-12T11:16:43;4.80;;;4.47;;
42944;SDS011;28584;42.636;23.294;2022-09-12T11:25:30;5.47;;;5.03;;
42944;SDS011;28584;42.636;23.294;2022-09-12T11:28:02;5.60;;;5.10;;
42944;SDS011;28584;42.636;23.294;2022-09-12T11:30:46;5.07;;;4.68;;
42944;SDS011;28584;42.636;23.294;2022-09-12T11:33:43;5.55;;;5.05;;
42944;SDS011;28584;42.636;23.294;2022-09-12T11:36:26;6.65;;;6.05;;
42944;SDS011;28584;42.636;23.294;2022-09-12T11:39:13;6.25;;;5.63;;
42944;SDS011;28584;42.636;23.294;2022-09-12T11:41:48;8.27;;;6.65;;
42944;SDS011;28584;42.636;23.294;2022-09-12T11:44:20;6.82;;;6.30;;
42944;SDS011;28584;42.636;23.294;2022-09-12T11:46:50;7.30;;;6.60;;
42944;SDS011;28584;42.636;23.294;2022-09-12T11:49:18;6.60;;;6.03;;
42944;SDS011;28584;42.636;23.294;2022-09-12T11:52:01;6.28;;;5.68;;
42944;SDS011;28584;42.636;23.294;2022-09-12T11:57:19;6.93;;;6.32;;
42944;SDS011;28584;42.636;23.294;2022-09-12T11:59:55;6.13;;;5.57;;
42944;SDS011;28584;42.636;23.294;2022-09-12T12:02:25;6.15;;;5.65;;
42944;SDS011;28584;42.636;23.294;2022-09-12T12:05:01;5.35;;;4.85;;
42944;SDS011;28584;42.636;23.294;2022-09-12T12:07:54;4.32;;;4.03;;
42944;SDS011;28584;42.636;23.294;2022-09-12T12:10:38;4.38;;;4.03;;
42944;SDS011;28584;42.636;23.294;2022-09-12T12:13:07;4.13;;;3.83;;
42944;SDS011;28584;42.636;23.294;2022-09-12T12:15:46;3.70;;;3.40;;
42944;SDS011;28584;42.636;23.294;2022-09-12T12:18:14;3.30;;;3.10;;
42944;SDS011;28584;42.636;23.294;2022-09-12T12:20:43;4.15;;;3.85;;
42944;SDS011;28584;42.636;23.294;2022-09-12T12:23:25;4.07;;;3.67;;
42944;SDS011;28584;42.636;23.294;2022-09-12T12:25:59;7.18;;;4.13;;
42944;SDS011;28584;42.636;23.294;2022-09-12T12:31:06;7.30;;;3.80;;
42944;SDS011;28584;42.636;23.294;2022-09-12T12:33:50;4.68;;;3.95;;
42944;SDS011;28584;42.636;23.294;2022-09-12T12:36:31;4.07;;;3.25;;
42944;SDS011;28584;42.636;23.294;2022-09-12T12:39:53;3.15;;;2.95;;
42944;SDS011;28584;42.636;23.294;2022-09-12T12:41:57;2.80;;;2.60;;
42944;SDS011;28584;42.636;23.294;2022-09-12T12:44:45;2.90;;;2.40;;
42944;SDS011;28584;42.636;23.294;2022-09-12T12:47:14;2.80;;;2.60;;
42944;SDS011;28584;42.636;23.294;2022-09-12T12:49:52;4.38;;;2.65;;
42944;SDS011;28584;42.636;23.294;2022-09-12T12:52:22;4.90;;;2.42;;
42944;SDS011;28584;42.636;23.294;2022-09-12T12:54:50;2.88;;;2.70;;
42944;SDS011;28584;42.636;23.294;2022-09-12T12:57:22;2.80;;;2.70;;
42944;SDS011;28584;42.636;23.294;2022-09-12T13:00:03;3.22;;;3.03;;
42944;SDS011;28584;42.636;23.294;2022-09-12T13:02:31;4.63;;;3.33;;
42944;SDS011;28584;42.636;23.294;2022-09-12T13:05:01;4.07;;;3.75;;
42944;SDS011;28584;42.636;23.294;2022-09-12T13:07:45;4.45;;;4.13;;
42944;SDS011;28584;42.636;23.294;2022-09-12T13:10:22;4.05;;;3.70;;
42944;SDS011;28584;42.636;23.294;2022-09-12T13:12:52;4.30;;;4.00;;
42944;SDS011;28584;42.636;23.294;2022-09-12T13:23:37;5.35;;;4.50;;
42944;SDS011;28584;42.636;23.294;2022-09-12T13:26:07;6.22;;;4.63;;
42944;SDS011;28584;42.636;23.294;2022-09-12T13:28:35;4.25;;;3.95;;
42944;SDS011;28584;42.636;23.294;2022-09-12T13:31:11;7.05;;;3.90;;
42944;SDS011;28584;42.636;23.294;2022-09-12T13:33:53;4.22;;;3.92;;
42944;SDS011;28584;42.636;23.294;2022-09-12T13:44:17;4.78;;;3.72;;
42944;SDS011;28584;42.636;23.294;2022-09-12T13:46:45;4.38;;;4.00;;
42944;SDS011;28584;42.636;23.294;2022-09-12T13:52:00;4.32;;;3.92;;
42944;SDS011;28584;42.636;23.294;2022-09-12T13:54:29;4.13;;;3.83;;
42944;SDS011;28584;42.636;23.294;2022-09-12T13:56:56;4.60;;;4.20;;
42944;SDS011;28584;42.636;23.294;2022-09-12T13:59:21;5.40;;;5.00;;
42944;SDS011;28584;42.636;23.294;2022-09-12T14:01:47;6.10;;;5.50;;
42944;SDS011;28584;42.636;23.294;2022-09-12T14:07:10;6.22;;;5.45;;
42944;SDS011;28584;42.636;23.294;2022-09-12T14:09:57;6.70;;;6.20;;
42944;SDS011;28584;42.636;23.294;2022-09-12T14:12:26;7.30;;;6.65;;
42944;SDS011;28584;42.636;23.294;2022-09-12T14:14:55;6.80;;;6.20;;
42944;SDS011;28584;42.636;23.294;2022-09-12T14:17:26;6.85;;;6.22;;
42944;SDS011;28584;42.636;23.294;2022-09-12T14:19:59;6.93;;;5.90;;
42944;SDS011;28584;42.636;23.294;2022-09-12T14:22:27;6.95;;;6.32;;
42944;SDS011;28584;42.636;23.294;2022-09-12T14:24:54;7.07;;;6.57;;
42944;SDS011;28584;42.636;23.294;2022-09-12T14:27:25;6.90;;;6.30;;
42944;SDS011;28584;42.636;23.294;2022-09-12T14:30:03;6.78;;;6.10;;
42944;SDS011;28584;42.636;23.294;2022-09-12T14:32:42;6.55;;;6.05;;
42944;SDS011;28584;42.636;23.294;2022-09-12T14:35:28;6.85;;;6.25;;
42944;SDS011;28584;42.636;23.294;2022-09-12T14:37:54;5.45;;;5.05;;
42944;SDS011;28584;42.636;23.294;2022-09-12T14:40:21;6.50;;;6.00;;
42944;SDS011;28584;42.636;23.294;2022-09-12T14:42:48;6.53;;;6.03;;
42944;SDS011;28584;42.636;23.294;2022-09-12T14:45:16;6.05;;;5.55;;
42944;SDS011;28584;42.636;23.294;2022-09-12T14:47:49;5.60;;;5.20;;
42944;SDS011;28584;42.636;23.294;2022-09-12T14:50:26;5.85;;;5.45;;
42944;SDS011;28584;42.636;23.294;2022-09-12T14:53:07;5.85;;;5.40;;
42944;SDS011;28584;42.636;23.294;2022-09-12T14:55:57;5.97;;;5.53;;
42944;SDS011;28584;42.636;23.294;2022-09-12T14:58:24;5.80;;;5.30;;
42944;SDS011;28584;42.636;23.294;2022-09-12T15:00:59;5.68;;;5.28;;
42944;SDS011;28584;42.636;23.294;2022-09-12T15:06:19;5.82;;;5.43;;
42944;SDS011;28584;42.636;23.294;2022-09-12T15:08:45;6.05;;;5.50;;
42944;SDS011;28584;42.636;23.294;2022-09-12T15:11:11;6.10;;;5.55;;
42944;SDS011;28584;42.636;23.294;2022-09-12T15:13:38;6.00;;;5.60;;
42944;SDS011;28584;42.636;23.294;2022-09-12T15:16:09;6.00;;;5.60;;
42944;SDS011;28584;42.636;23.294;2022-09-12T15:18:35;6.65;;;6.00;;
42944;SDS011;28584;42.636;23.294;2022-09-12T15:21:01;5.93;;;5.32;;
42944;SDS011;28584;42.636;23.294;2022-09-12T15:23:46;7.05;;;5.10;;
42944;SDS011;28584;42.636;23.294;2022-09-12T15:26:17;5.72;;;5.15;;
42944;SDS011;28584;42.636;23.294;2022-09-12T15:28:45;7.20;;;5.38;;
42944;SDS011;28584;42.636;23.294;2022-09-12T15:31:12;5.45;;;4.95;;
42944;SDS011;28584;42.636;23.294;2022-09-12T15:33:44;5.80;;;5.40;;
42944;SDS011;28584;42.636;23.294;2022-09-12T15:36:17;5.75;;;5.25;;
42944;SDS011;28584;42.636;23.294;2022-09-12T15:38:44;5.90;;;5.40;;
42944;SDS011;28584;42.636;23.294;2022-09-12T15:41:12;5.85;;;5.45;;
42944;SDS011;28584;42.636;23.294;2022-09-12T15:43:41;5.18;;;4.70;;
42944;SDS011;28584;42.636;23.294;2022-09-12T15:46:09;5.38;;;4.97;;
42944;SDS011;28584;42.636;23.294;2022-09-12T15:48:35;5.40;;;5.00;;
42944;SDS011;28584;42.636;23.294;2022-09-12T15:51:01;5.10;;;4.70;;
42944;SDS011;28584;42.636;23.294;2022-09-12T15:53:28;6.50;;;4.97;;
42944;SDS011;28584;42.636;23.294;2022-09-12T15:55:53;5.22;;;4.72;;
42944;SDS011;28584;42.636;23.294;2022-09-12T15:58:19;5.45;;;4.95;;
42944;SDS011;28584;42.636;23.294;2022-09-12T16:00:44;5.15;;;4.75;;
42944;SDS011;28584;42.636;23.294;2022-09-12T16:03:31;4.80;;;4.50;;
42944;SDS011;28584;42.636;23.294;2022-09-12T16:05:56;5.75;;;5.35;;
42944;SDS011;28584;42.636;23.294;2022-09-12T16:08:24;5.05;;;4.65;;
42944;SDS011;28584;42.636;23.294;2022-09-12T16:10:52;5.07;;;4.68;;
42944;SDS011;28584;42.636;23.294;2022-09-12T16:13:20;5.13;;;4.75;;
42944;SDS011;28584;42.636;23.294;2022-09-12T16:15:45;5.72;;;5.20;;
42944;SDS011;28584;42.636;23.294;2022-09-12T16:18:11;5.30;;;4.90;;
42944;SDS011;28584;42.636;23.294;2022-09-12T16:20:37;5.05;;;4.65;;
42944;SDS011;28584;42.636;23.294;2022-09-12T16:23:04;5.68;;;5.20;;
42944;SDS011;28584;42.636;23.294;2022-09-12T16:25:29;5.28;;;4.88;;
42944;SDS011;28584;42.636;23.294;2022-09-12T16:27:55;4.68;;;4.38;;
42944;SDS011;28584;42.636;23.294;2022-09-12T16:30:20;5.15;;;4.80;;
42944;SDS011;28584;42.636;23.294;2022-09-12T16:32:45;5.30;;;4.90;;
42944;SDS011;28584;42.636;23.294;2022-09-12T16:35:11;6.65;;;4.68;;
42944;SDS011;28584;42.636;23.294;2022-09-12T16:37:36;4.88;;;4.47;;
42944;SDS011;28584;42.636;23.294;2022-09-12T16:40:03;5.57;;;5.05;;
42944;SDS011;28584;42.636;23.294;2022-09-12T16:42:29;6.30;;;4.35;;
42944;SDS011;28584;42.636;23.294;2022-09-12T16:44:55;5.40;;;5.00;;
42944;SDS011;28584;42.636;23.294;2022-09-12T16:47:20;5.43;;;4.82;;
42944;SDS011;28584;42.636;23.294;2022-09-12T16:49:45;5.15;;;4.70;;
42944;SDS011;28584;42.636;23.294;2022-09-12T16:52:11;4.90;;;4.50;;
42944;SDS011;28584;42.636;23.294;2022-09-12T16:54:40;4.95;;;4.53;;
42944;SDS011;28584;42.636;23.294;2022-09-12T16:57:06;5.18;;;4.78;;
42944;SDS011;28584;42.636;23.294;2022-09-12T16:59:31;4.47;;;4.18;;
42944;SDS011;28584;42.636;23.294;2022-09-12T17:01:57;4.90;;;4.43;;
42944;SDS011;28584;42.636;23.294;2022-09-12T17:04:22;5.97;;;4.40;;
42944;SDS011;28584;42.636;23.294;2022-09-12T17:06:48;4.57;;;4.28;;
42944;SDS011;28584;42.636;23.294;2022-09-12T17:09:14;5.00;;;4.60;;
42944;SDS011;28584;42.636;23.294;2022-09-12T17:11:43;6.63;;;4.70;;
42944;SDS011;28584;42.636;23.294;2022-09-12T17:14:10;5.78;;;5.28;;
42944;SDS011;28584;42.636;23.294;2022-09-12T17:16:37;5.70;;;5.18;;
42944;SDS011;28584;42.636;23.294;2022-09-12T17:19:04;5.95;;;5.45;;
42944;SDS011;28584;42.636;23.294;2022-09-12T17:21:31;5.13;;;4.60;;
42944;SDS011;28584;42.636;23.294;2022-09-12T17:23:57;4.75;;;4.38;;
42944;SDS011;28584;42.636;23.294;2022-09-12T17:26:23;5.05;;;4.28;;
42944;SDS011;28584;42.636;23.294;2022-09-12T17:28:49;4.05;;;3.80;;
42944;SDS011;28584;42.636;23.294;2022-09-12T17:31:14;4.10;;;3.80;;
42944;SDS011;28584;42.636;23.294;2022-09-12T17:33:40;4.57;;;4.18;;
42944;SDS011;28584;42.636;23.294;2022-09-12T17:36:07;4.50;;;4.20;;
42944;SDS011;28584;42.636;23.294;2022-09-12T17:38:35;4.05;;;3.75;;
42944;SDS011;28584;42.636;23.294;2022-09-12T17:43:35;4.10;;;3.80;;
42944;SDS011;28584;42.636;23.294;2022-09-12T17:46:02;4.63;;;3.90;;
42944;SDS011;28584;42.636;23.294;2022-09-12T17:48:28;4.32;;;4.03;;
42944;SDS011;28584;42.636;23.294;2022-09-12T17:50:54;4.22;;;3.85;;